sensor_id;sensor_type;location;lat;lon;timestamp;P1;durP1;ratioP1;P2;durP2;ratioP2
177;SDS011;77;48.792;9.032;2022-12-18T00:02:12;74.17;;;35.17;;
177;SDS011;77;48.792;9.032;2022-12-18T00:04:37;75.03;;;36.10;;
177;SDS011;77;48.792;9.032;2022-12-18T00:07:02;77.00;;;35.13;;
177;SDS011;77;48.792;9.032;2022-12-18T00:09:28;77.60;;;35.03;;
177;SDS011;77;48.792;9.032;2022-12-18T00:11:53;78.33;;;36.90;;
177;SDS011;77;48.792;9.032;2022-12-18T07:46:32;51.80;;;25.48;;
177;SDS011;77;48.792;9.032;2022-12-18T07:48:57;53.05;;;24.95;;
177;SDS011;77;48.792;9.032;2022-12-18T07:51:23;49.50;;;23.80;;
177;SDS011;77;48.792;9.032;2022-12-18T07:53:48;51.63;;;22.90;;
177;SDS011;77;48.792;9.032;2022-12-18T07:56:13;52.87;;;22.37;;
177;SDS011;77;48.792;9.032;2022-12-18T07:58:38;50.80;;;22.30;;
177;SDS011;77;48.792;9.032;2022-12-18T08:01:04;48.97;;;21.70;;
177;SDS011;77;48.792;9.032;2022-12-18T08:03:31;49.30;;;22.73;;
177;SDS011;77;48.792;9.032;2022-12-18T08:05:58;47.75;;;21.45;;
177;SDS011;77;48.792;9.032;2022-12-18T08:08:23;49.13;;;22.25;;
177;SDS011;77;48.792;9.032;2022-12-18T08:10:48;49.37;;;22.83;;
177;SDS011;77;48.792;9.032;2022-12-18T08:13:13;52.70;;;21.80;;
177;SDS011;77;48.792;9.032;2022-12-18T08:15:39;48.10;;;21.00;;
177;SDS011;77;48.792;9.032;2022-12-18T08:18:04;52.00;;;22.87;;
177;SDS011;77;48.792;9.032;2022-12-18T08:20:33;50.10;;;21.60;;
177;SDS011;77;48.792;9.032;2022-12-18T08:22:59;50.20;;;21.75;;
177;SDS011;77;48.792;9.032;2022-12-18T08:25:24;51.97;;;22.67;;
177;SDS011;77;48.792;9.032;2022-12-18T08:27:49;48.00;;;20.87;;
177;SDS011;77;48.792;9.032;2022-12-18T08:30:14;50.80;;;22.40;;
177;SDS011;77;48.792;9.032;2022-12-18T08:32:40;57.43;;;22.80;;
177;SDS011;77;48.792;9.032;2022-12-18T08:35:05;50.50;;;22.20;;
177;SDS011;77;48.792;9.032;2022-12-18T08:37:32;49.30;;;21.23;;
177;SDS011;77;48.792;9.032;2022-12-18T08:39:57;53.72;;;23.38;;
177;SDS011;77;48.792;9.032;2022-12-18T08:42:23;47.20;;;21.30;;
177;SDS011;77;48.792;9.032;2022-12-18T08:44:48;48.00;;;21.30;;
177;SDS011;77;48.792;9.032;2022-12-18T08:47:13;52.80;;;23.20;;
177;SDS011;77;48.792;9.032;2022-12-18T08:49:38;50.37;;;22.10;;
177;SDS011;77;48.792;9.032;2022-12-18T08:52:04;46.60;;;20.03;;
177;SDS011;77;48.792;9.032;2022-12-18T08:54:30;50.03;;;22.10;;
177;SDS011;77;48.792;9.032;2022-12-18T08:56:55;50.25;;;21.58;;
177;SDS011;77;48.792;9.032;2022-12-18T08:59:21;50.63;;;22.10;;
177;SDS011;77;48.792;9.032;2022-12-18T09:01:46;45.80;;;20.70;;
177;SDS011;77;48.792;9.032;2022-12-18T09:04:12;50.00;;;20.97;;
177;SDS011;77;48.792;9.032;2022-12-18T09:06:37;49.93;;;21.87;;
177;SDS011;77;48.792;9.032;2022-12-18T09:09:03;53.40;;;23.60;;
177;SDS011;77;48.792;9.032;2022-12-18T09:11:30;46.73;;;21.30;;
177;SDS011;77;48.792;9.032;2022-12-18T09:13:56;46.88;;;21.77;;
177;SDS011;77;48.792;9.032;2022-12-18T09:16:22;46.03;;;21.37;;
177;SDS011;77;48.792;9.032;2022-12-18T09:18:47;46.43;;;21.60;;
177;SDS011;77;48.792;9.032;2022-12-18T09:21:13;46.30;;;22.30;;
177;SDS011;77;48.792;9.032;2022-12-18T09:23:39;44.05;;;21.55;;
177;SDS011;77;48.792;9.032;2022-12-18T09:26:04;46.93;;;21.93;;
177;SDS011;77;48.792;9.032;2022-12-18T09:28:31;44.10;;;20.50;;
177;SDS011;77;48.792;9.032;2022-12-18T09:30:56;42.50;;;21.05;;
177;SDS011;77;48.792;9.032;2022-12-18T09:33:21;45.50;;;22.07;;
177;SDS011;77;48.792;9.032;2022-12-18T09:35:47;41.50;;;21.23;;
177;SDS011;77;48.792;9.032;2022-12-18T09:38:12;46.57;;;22.10;;
177;SDS011;77;48.792;9.032;2022-12-18T09:40:40;45.10;;;21.60;;
177;SDS011;77;48.792;9.032;2022-12-18T09:43:06;45.42;;;21.27;;
177;SDS011;77;48.792;9.032;2022-12-18T09:45:43;43.65;;;21.35;;
177;SDS011;77;48.792;9.032;2022-12-18T09:48:10;44.10;;;21.60;;
177;SDS011;77;48.792;9.032;2022-12-18T09:50:39;44.97;;;21.10;;
177;SDS011;77;48.792;9.032;2022-12-18T09:53:05;43.85;;;21.45;;
177;SDS011;77;48.792;9.032;2022-12-18T09:55:33;41.83;;;21.05;;
177;SDS011;77;48.792;9.032;2022-12-18T09:58:00;42.42;;;21.10;;
177;SDS011;77;48.792;9.032;2022-12-18T10:00:27;39.15;;;20.13;;
177;SDS011;77;48.792;9.032;2022-12-18T10:02:58;43.03;;;21.80;;
177;SDS011;77;48.792;9.032;2022-12-18T10:05:28;46.27;;;21.97;;
177;SDS011;77;48.792;9.032;2022-12-18T10:07:59;46.60;;;21.65;;
177;SDS011;77;48.792;9.032;2022-12-18T10:10:30;43.87;;;22.33;;
177;SDS011;77;48.792;9.032;2022-12-18T10:12:59;41.63;;;20.60;;
177;SDS011;77;48.792;9.032;2022-12-18T10:15:29;46.80;;;23.02;;
177;SDS011;77;48.792;9.032;2022-12-18T10:17:57;47.70;;;22.77;;
177;SDS011;77;48.792;9.032;2022-12-18T10:20:27;46.70;;;22.00;;
177;SDS011;77;48.792;9.032;2022-12-18T10:22:55;44.80;;;21.30;;
177;SDS011;77;48.792;9.032;2022-12-18T10:25:22;45.53;;;22.55;;
177;SDS011;77;48.792;9.032;2022-12-18T10:27:49;41.85;;;20.45;;
177;SDS011;77;48.792;9.032;2022-12-18T10:30:17;44.55;;;21.63;;
177;SDS011;77;48.792;9.032;2022-12-18T10:32:42;42.10;;;21.30;;
177;SDS011;77;48.792;9.032;2022-12-18T10:35:11;43.00;;;20.67;;
177;SDS011;77;48.792;9.032;2022-12-18T10:37:40;44.20;;;21.87;;
177;SDS011;77;48.792;9.032;2022-12-18T10:40:23;41.17;;;20.87;;
177;SDS011;77;48.792;9.032;2022-12-18T10:42:55;41.37;;;20.57;;
177;SDS011;77;48.792;9.032;2022-12-18T10:45:30;38.43;;;20.60;;
177;SDS011;77;48.792;9.032;2022-12-18T10:47:56;42.37;;;21.73;;
177;SDS011;77;48.792;9.032;2022-12-18T10:50:25;42.60;;;22.57;;
177;SDS011;77;48.792;9.032;2022-12-18T10:52:55;40.73;;;21.33;;
177;SDS011;77;48.792;9.032;2022-12-18T10:55:20;42.20;;;22.40;;
177;SDS011;77;48.792;9.032;2022-12-18T10:57:46;44.23;;;22.70;;
177;SDS011;77;48.792;9.032;2022-12-18T11:00:24;38.10;;;20.50;;
177;SDS011;77;48.792;9.032;2022-12-18T11:02:49;42.60;;;22.63;;
177;SDS011;77;48.792;9.032;2022-12-18T11:05:26;36.10;;;21.03;;
177;SDS011;77;48.792;9.032;2022-12-18T11:07:52;38.43;;;20.90;;
177;SDS011;77;48.792;9.032;2022-12-18T11:10:18;40.00;;;21.57;;
177;SDS011;77;48.792;9.032;2022-12-18T11:12:44;39.87;;;21.23;;
177;SDS011;77;48.792;9.032;2022-12-18T11:15:13;40.67;;;21.77;;
177;SDS011;77;48.792;9.032;2022-12-18T11:17:39;38.30;;;21.10;;
177;SDS011;77;48.792;9.032;2022-12-18T11:20:05;39.77;;;21.63;;
177;SDS011;77;48.792;9.032;2022-12-18T11:22:33;35.33;;;20.50;;
177;SDS011;77;48.792;9.032;2022-12-18T11:25:00;37.20;;;21.10;;
177;SDS011;77;48.792;9.032;2022-12-18T11:27:26;35.37;;;20.90;;
177;SDS011;77;48.792;9.032;2022-12-18T11:30:06;34.63;;;20.17;;
177;SDS011;77;48.792;9.032;2022-12-18T11:32:33;34.53;;;20.90;;
177;SDS011;77;48.792;9.032;2022-12-18T11:35:01;35.20;;;21.23;;
177;SDS011;77;48.792;9.032;2022-12-18T11:37:27;34.43;;;20.90;;
177;SDS011;77;48.792;9.032;2022-12-18T11:39:55;34.90;;;19.83;;
177;SDS011;77;48.792;9.032;2022-12-18T11:42:22;37.07;;;21.30;;
177;SDS011;77;48.792;9.032;2022-12-18T11:44:50;37.13;;;20.90;;
177;SDS011;77;48.792;9.032;2022-12-18T11:47:22;34.97;;;20.93;;
177;SDS011;77;48.792;9.032;2022-12-18T11:49:49;35.30;;;21.10;;
177;SDS011;77;48.792;9.032;2022-12-18T11:52:16;33.70;;;20.20;;
177;SDS011;77;48.792;9.032;2022-12-18T11:54:43;35.10;;;21.60;;
177;SDS011;77;48.792;9.032;2022-12-18T11:57:11;35.37;;;21.13;;
177;SDS011;77;48.792;9.032;2022-12-18T11:59:40;37.13;;;21.47;;
177;SDS011;77;48.792;9.032;2022-12-18T12:02:14;37.10;;;22.13;;
177;SDS011;77;48.792;9.032;2022-12-18T12:04:47;36.67;;;20.83;;
177;SDS011;77;48.792;9.032;2022-12-18T12:07:22;39.53;;;22.40;;
177;SDS011;77;48.792;9.032;2022-12-18T12:09:55;37.40;;;21.30;;
177;SDS011;77;48.792;9.032;2022-12-18T12:12:26;38.43;;;22.30;;
177;SDS011;77;48.792;9.032;2022-12-18T12:14:54;34.70;;;20.87;;
177;SDS011;77;48.792;9.032;2022-12-18T12:17:27;38.30;;;22.13;;
177;SDS011;77;48.792;9.032;2022-12-18T12:19:56;39.80;;;22.87;;
177;SDS011;77;48.792;9.032;2022-12-18T12:22:24;37.07;;;21.33;;
177;SDS011;77;48.792;9.032;2022-12-18T12:27:39;42.73;;;22.27;;
177;SDS011;77;48.792;9.032;2022-12-18T12:30:08;40.50;;;22.20;;
177;SDS011;77;48.792;9.032;2022-12-18T12:32:42;37.97;;;20.97;;
177;SDS011;77;48.792;9.032;2022-12-18T12:35:12;46.50;;;22.50;;
177;SDS011;77;48.792;9.032;2022-12-18T12:37:45;38.97;;;20.70;;
177;SDS011;77;48.792;9.032;2022-12-18T12:40:15;44.03;;;22.37;;
177;SDS011;77;48.792;9.032;2022-12-18T12:42:44;40.87;;;21.23;;
177;SDS011;77;48.792;9.032;2022-12-18T12:45:14;41.93;;;21.63;;
177;SDS011;77;48.792;9.032;2022-12-18T12:47:43;40.50;;;20.40;;
177;SDS011;77;48.792;9.032;2022-12-18T12:50:12;37.33;;;20.73;;
177;SDS011;77;48.792;9.032;2022-12-18T12:52:39;38.20;;;19.87;;
177;SDS011;77;48.792;9.032;2022-12-18T12:55:06;37.33;;;20.10;;
177;SDS011;77;48.792;9.032;2022-12-18T12:57:37;39.07;;;20.50;;
177;SDS011;77;48.792;9.032;2022-12-18T13:00:18;40.60;;;21.50;;
177;SDS011;77;48.792;9.032;2022-12-18T13:02:44;41.93;;;21.93;;
177;SDS011;77;48.792;9.032;2022-12-18T13:05:15;42.83;;;21.90;;
177;SDS011;77;48.792;9.032;2022-12-18T13:07:45;43.30;;;22.20;;
177;SDS011;77;48.792;9.032;2022-12-18T13:10:23;40.43;;;20.60;;
177;SDS011;77;48.792;9.032;2022-12-18T13:12:55;43.10;;;22.20;;
177;SDS011;77;48.792;9.032;2022-12-18T13:15:23;40.40;;;21.43;;
177;SDS011;77;48.792;9.032;2022-12-18T13:17:49;43.10;;;22.07;;
177;SDS011;77;48.792;9.032;2022-12-18T13:20:34;43.30;;;22.40;;
177;SDS011;77;48.792;9.032;2022-12-18T13:23:00;41.17;;;22.03;;
177;SDS011;77;48.792;9.032;2022-12-18T13:25:26;42.10;;;22.53;;
177;SDS011;77;48.792;9.032;2022-12-18T13:27:57;48.00;;;23.33;;
177;SDS011;77;48.792;9.032;2022-12-18T13:30:42;43.40;;;22.20;;
177;SDS011;77;48.792;9.032;2022-12-18T13:35:58;42.17;;;22.50;;
177;SDS011;77;48.792;9.032;2022-12-18T13:38:32;41.57;;;21.83;;
177;SDS011;77;48.792;9.032;2022-12-18T13:40:58;44.77;;;22.80;;
177;SDS011;77;48.792;9.032;2022-12-18T13:43:34;45.53;;;23.90;;
177;SDS011;77;48.792;9.032;2022-12-18T13:48:43;43.07;;;22.20;;
177;SDS011;77;48.792;9.032;2022-12-18T13:51:15;46.37;;;23.50;;
177;SDS011;77;48.792;9.032;2022-12-18T13:53:42;46.40;;;23.87;;
177;SDS011;77;48.792;9.032;2022-12-18T13:56:08;43.40;;;23.40;;
177;SDS011;77;48.792;9.032;2022-12-18T13:58:33;47.50;;;24.27;;
177;SDS011;77;48.792;9.032;2022-12-18T14:00:59;47.20;;;24.43;;
177;SDS011;77;48.792;9.032;2022-12-18T14:03:25;45.57;;;23.77;;
177;SDS011;77;48.792;9.032;2022-12-18T14:05:55;46.63;;;23.93;;
177;SDS011;77;48.792;9.032;2022-12-18T14:08:21;51.30;;;25.87;;
177;SDS011;77;48.792;9.032;2022-12-18T14:10:47;54.20;;;25.60;;
177;SDS011;77;48.792;9.032;2022-12-18T14:13:16;52.53;;;24.93;;
177;SDS011;77;48.792;9.032;2022-12-18T14:15:43;49.20;;;25.10;;
177;SDS011;77;48.792;9.032;2022-12-18T14:18:14;46.80;;;23.77;;
177;SDS011;77;48.792;9.032;2022-12-18T14:20:43;54.20;;;26.40;;
177;SDS011;77;48.792;9.032;2022-12-18T14:25:50;51.67;;;25.47;;
177;SDS011;77;48.792;9.032;2022-12-18T14:28:15;58.87;;;27.33;;
177;SDS011;77;48.792;9.032;2022-12-18T14:30:41;52.00;;;26.30;;
177;SDS011;77;48.792;9.032;2022-12-18T14:33:09;54.63;;;26.60;;
177;SDS011;77;48.792;9.032;2022-12-18T14:35:35;52.47;;;26.10;;
177;SDS011;77;48.792;9.032;2022-12-18T14:38:19;56.80;;;26.90;;
177;SDS011;77;48.792;9.032;2022-12-18T14:40:47;55.93;;;26.63;;
177;SDS011;77;48.792;9.032;2022-12-18T14:43:16;58.93;;;26.33;;
177;SDS011;77;48.792;9.032;2022-12-18T14:45:42;55.50;;;26.60;;
177;SDS011;77;48.792;9.032;2022-12-18T14:48:08;54.97;;;26.87;;
177;SDS011;77;48.792;9.032;2022-12-18T14:50:34;56.17;;;27.13;;
177;SDS011;77;48.792;9.032;2022-12-18T14:52:59;59.33;;;26.90;;
177;SDS011;77;48.792;9.032;2022-12-18T14:55:24;56.70;;;26.23;;
177;SDS011;77;48.792;9.032;2022-12-18T14:57:50;53.77;;;26.20;;
177;SDS011;77;48.792;9.032;2022-12-18T15:00:18;54.43;;;25.40;;
177;SDS011;77;48.792;9.032;2022-12-18T15:02:44;54.47;;;25.67;;
177;SDS011;77;48.792;9.032;2022-12-18T15:05:16;59.13;;;27.15;;
177;SDS011;77;48.792;9.032;2022-12-18T15:07:42;57.33;;;26.05;;
177;SDS011;77;48.792;9.032;2022-12-18T15:10:10;56.53;;;25.45;;
177;SDS011;77;48.792;9.032;2022-12-18T15:12:36;53.72;;;25.02;;
177;SDS011;77;48.792;9.032;2022-12-18T15:15:01;56.73;;;25.20;;
177;SDS011;77;48.792;9.032;2022-12-18T15:17:28;54.23;;;25.83;;
177;SDS011;77;48.792;9.032;2022-12-18T15:19:58;53.78;;;25.02;;
177;SDS011;77;48.792;9.032;2022-12-18T15:22:25;52.33;;;25.10;;
177;SDS011;77;48.792;9.032;2022-12-18T15:24:50;54.45;;;25.55;;
177;SDS011;77;48.792;9.032;2022-12-18T15:27:23;61.37;;;26.43;;
177;SDS011;77;48.792;9.032;2022-12-18T15:32:30;58.15;;;26.52;;
177;SDS011;77;48.792;9.032;2022-12-18T15:35:02;57.10;;;25.13;;
177;SDS011;77;48.792;9.032;2022-12-18T15:37:27;55.78;;;25.73;;
177;SDS011;77;48.792;9.032;2022-12-18T15:39:52;60.73;;;27.47;;
177;SDS011;77;48.792;9.032;2022-12-18T15:42:17;62.03;;;27.73;;
177;SDS011;77;48.792;9.032;2022-12-18T15:44:43;57.43;;;25.77;;
177;SDS011;77;48.792;9.032;2022-12-18T15:47:10;62.63;;;28.00;;
177;SDS011;77;48.792;9.032;2022-12-18T15:49:37;59.00;;;27.45;;
177;SDS011;77;48.792;9.032;2022-12-18T15:52:03;62.05;;;27.63;;
177;SDS011;77;48.792;9.032;2022-12-18T15:54:28;60.90;;;27.57;;
177;SDS011;77;48.792;9.032;2022-12-18T15:56:53;64.17;;;27.33;;
177;SDS011;77;48.792;9.032;2022-12-18T15:59:19;58.03;;;27.80;;
177;SDS011;77;48.792;9.032;2022-12-18T16:01:45;61.63;;;27.40;;
177;SDS011;77;48.792;9.032;2022-12-18T16:04:10;63.97;;;28.63;;
177;SDS011;77;48.792;9.032;2022-12-18T16:06:38;56.50;;;26.00;;
177;SDS011;77;48.792;9.032;2022-12-18T16:09:03;59.40;;;27.30;;
177;SDS011;77;48.792;9.032;2022-12-18T16:11:29;60.40;;;27.33;;
177;SDS011;77;48.792;9.032;2022-12-18T16:13:54;60.72;;;27.20;;
177;SDS011;77;48.792;9.032;2022-12-18T16:16:20;57.70;;;26.97;;
177;SDS011;77;48.792;9.032;2022-12-18T16:18:45;57.57;;;26.97;;
177;SDS011;77;48.792;9.032;2022-12-18T16:21:10;58.03;;;27.23;;
177;SDS011;77;48.792;9.032;2022-12-18T16:23:37;59.03;;;27.40;;
177;SDS011;77;48.792;9.032;2022-12-18T16:26:02;55.67;;;25.95;;
177;SDS011;77;48.792;9.032;2022-12-18T16:28:27;57.80;;;26.33;;
177;SDS011;77;48.792;9.032;2022-12-18T16:30:52;59.80;;;27.87;;
177;SDS011;77;48.792;9.032;2022-12-18T16:33:18;64.00;;;27.93;;
177;SDS011;77;48.792;9.032;2022-12-18T16:35:43;59.43;;;28.20;;
177;SDS011;77;48.792;9.032;2022-12-18T16:38:15;58.20;;;26.70;;
177;SDS011;77;48.792;9.032;2022-12-18T16:40:42;41.87;;;19.97;;
177;SDS011;77;48.792;9.032;2022-12-18T16:43:07;58.72;;;26.27;;
177;SDS011;77;48.792;9.032;2022-12-18T16:45:32;63.80;;;29.23;;
177;SDS011;77;48.792;9.032;2022-12-18T16:47:57;61.40;;;27.10;;
177;SDS011;77;48.792;9.032;2022-12-18T16:50:23;54.57;;;25.70;;
177;SDS011;77;48.792;9.032;2022-12-18T16:52:48;61.07;;;27.87;;
177;SDS011;77;48.792;9.032;2022-12-18T16:55:13;55.57;;;26.30;;
177;SDS011;77;48.792;9.032;2022-12-18T16:57:40;54.53;;;25.30;;
177;SDS011;77;48.792;9.032;2022-12-18T17:00:06;56.03;;;25.33;;
177;SDS011;77;48.792;9.032;2022-12-18T17:02:31;59.22;;;26.00;;
177;SDS011;77;48.792;9.032;2022-12-18T17:04:56;50.93;;;24.80;;
177;SDS011;77;48.792;9.032;2022-12-18T17:07:22;53.80;;;25.37;;
177;SDS011;77;48.792;9.032;2022-12-18T17:09:48;55.73;;;26.30;;
177;SDS011;77;48.792;9.032;2022-12-18T17:12:13;53.43;;;25.20;;
177;SDS011;77;48.792;9.032;2022-12-18T17:14:39;54.57;;;26.00;;
177;SDS011;77;48.792;9.032;2022-12-18T17:17:05;56.10;;;25.48;;
177;SDS011;77;48.792;9.032;2022-12-18T17:19:30;51.30;;;23.60;;
177;SDS011;77;48.792;9.032;2022-12-18T17:21:55;52.83;;;25.50;;
177;SDS011;77;48.792;9.032;2022-12-18T17:24:21;53.03;;;23.27;;
177;SDS011;77;48.792;9.032;2022-12-18T17:26:46;51.97;;;24.83;;
177;SDS011;77;48.792;9.032;2022-12-18T17:29:12;49.57;;;24.30;;
177;SDS011;77;48.792;9.032;2022-12-18T17:31:39;56.67;;;25.17;;
177;SDS011;77;48.792;9.032;2022-12-18T17:34:04;52.58;;;24.45;;
177;SDS011;77;48.792;9.032;2022-12-18T17:36:29;55.70;;;24.83;;
177;SDS011;77;48.792;9.032;2022-12-18T17:38:55;49.90;;;23.40;;
177;SDS011;77;48.792;9.032;2022-12-18T17:41:21;58.43;;;25.37;;
177;SDS011;77;48.792;9.032;2022-12-18T17:43:49;50.03;;;23.60;;
177;SDS011;77;48.792;9.032;2022-12-18T17:46:14;52.15;;;25.08;;
177;SDS011;77;48.792;9.032;2022-12-18T17:48:41;55.90;;;24.73;;
177;SDS011;77;48.792;9.032;2022-12-18T17:51:07;56.97;;;25.60;;
177;SDS011;77;48.792;9.032;2022-12-18T17:53:33;57.45;;;26.27;;
177;SDS011;77;48.792;9.032;2022-12-18T17:55:58;60.53;;;27.20;;
177;SDS011;77;48.792;9.032;2022-12-18T17:58:24;56.53;;;25.10;;
177;SDS011;77;48.792;9.032;2022-12-18T18:00:49;53.27;;;25.13;;
177;SDS011;77;48.792;9.032;2022-12-18T18:03:15;53.97;;;25.80;;
177;SDS011;77;48.792;9.032;2022-12-18T18:05:41;56.10;;;27.00;;
177;SDS011;77;48.792;9.032;2022-12-18T18:08:07;56.85;;;26.17;;
177;SDS011;77;48.792;9.032;2022-12-18T18:10:34;56.37;;;26.63;;
177;SDS011;77;48.792;9.032;2022-12-18T18:12:59;58.40;;;26.75;;
177;SDS011;77;48.792;9.032;2022-12-18T18:15:24;63.20;;;27.43;;
177;SDS011;77;48.792;9.032;2022-12-18T18:17:49;59.30;;;27.17;;
177;SDS011;77;48.792;9.032;2022-12-18T18:20:15;61.60;;;27.10;;
177;SDS011;77;48.792;9.032;2022-12-18T18:22:41;57.90;;;26.90;;
177;SDS011;77;48.792;9.032;2022-12-18T18:25:07;59.92;;;28.40;;
177;SDS011;77;48.792;9.032;2022-12-18T18:27:32;63.13;;;28.90;;
177;SDS011;77;48.792;9.032;2022-12-18T18:29:57;65.97;;;29.33;;
177;SDS011;77;48.792;9.032;2022-12-18T18:32:23;61.17;;;28.73;;
177;SDS011;77;48.792;9.032;2022-12-18T18:34:48;60.47;;;28.57;;
177;SDS011;77;48.792;9.032;2022-12-18T18:37:13;63.30;;;30.30;;
177;SDS011;77;48.792;9.032;2022-12-18T18:39:40;62.20;;;29.97;;
177;SDS011;77;48.792;9.032;2022-12-18T18:42:05;65.55;;;28.95;;
177;SDS011;77;48.792;9.032;2022-12-18T18:44:30;59.70;;;28.00;;
177;SDS011;77;48.792;9.032;2022-12-18T18:46:56;65.60;;;29.30;;
177;SDS011;77;48.792;9.032;2022-12-18T18:49:21;64.60;;;29.70;;
177;SDS011;77;48.792;9.032;2022-12-18T18:51:48;66.33;;;30.17;;
177;SDS011;77;48.792;9.032;2022-12-18T18:54:13;65.07;;;29.88;;
177;SDS011;77;48.792;9.032;2022-12-18T18:56:40;67.67;;;30.70;;
177;SDS011;77;48.792;9.032;2022-12-18T18:59:05;66.25;;;31.55;;
177;SDS011;77;48.792;9.032;2022-12-18T19:01:31;71.47;;;30.47;;
177;SDS011;77;48.792;9.032;2022-12-18T19:03:56;68.50;;;30.83;;
177;SDS011;77;48.792;9.032;2022-12-18T19:06:22;68.30;;;31.70;;
177;SDS011;77;48.792;9.032;2022-12-18T19:08:47;72.53;;;31.53;;
177;SDS011;77;48.792;9.032;2022-12-18T19:11:12;71.40;;;32.03;;
177;SDS011;77;48.792;9.032;2022-12-18T19:13:39;72.83;;;31.70;;
177;SDS011;77;48.792;9.032;2022-12-18T19:16:06;68.78;;;30.27;;
177;SDS011;77;48.792;9.032;2022-12-18T19:18:31;71.85;;;31.55;;
177;SDS011;77;48.792;9.032;2022-12-18T19:20:57;68.77;;;31.70;;
177;SDS011;77;48.792;9.032;2022-12-18T19:23:22;68.33;;;30.30;;
177;SDS011;77;48.792;9.032;2022-12-18T19:25:47;64.07;;;29.70;;
177;SDS011;77;48.792;9.032;2022-12-18T19:28:12;67.63;;;29.60;;
177;SDS011;77;48.792;9.032;2022-12-18T19:30:39;64.53;;;29.50;;
177;SDS011;77;48.792;9.032;2022-12-18T19:33:04;64.65;;;28.90;;
177;SDS011;77;48.792;9.032;2022-12-18T19:35:30;67.73;;;30.40;;
177;SDS011;77;48.792;9.032;2022-12-18T19:37:55;63.93;;;29.63;;
177;SDS011;77;48.792;9.032;2022-12-18T19:40:20;64.03;;;28.93;;
177;SDS011;77;48.792;9.032;2022-12-18T19:42:46;67.33;;;29.60;;
177;SDS011;77;48.792;9.032;2022-12-18T19:45:11;65.53;;;29.97;;
177;SDS011;77;48.792;9.032;2022-12-18T19:47:37;63.83;;;29.13;;
177;SDS011;77;48.792;9.032;2022-12-18T19:50:03;67.10;;;29.95;;
177;SDS011;77;48.792;9.032;2022-12-18T19:52:28;64.67;;;29.53;;
177;SDS011;77;48.792;9.032;2022-12-18T19:54:53;67.37;;;29.63;;
177;SDS011;77;48.792;9.032;2022-12-18T19:57:19;62.23;;;28.40;;
177;SDS011;77;48.792;9.032;2022-12-18T19:59:44;70.20;;;30.53;;
177;SDS011;77;48.792;9.032;2022-12-18T20:02:09;60.60;;;27.77;;
177;SDS011;77;48.792;9.032;2022-12-18T20:04:38;64.90;;;29.02;;
177;SDS011;77;48.792;9.032;2022-12-18T20:07:03;60.25;;;28.33;;
177;SDS011;77;48.792;9.032;2022-12-18T20:09:28;65.23;;;29.30;;
177;SDS011;77;48.792;9.032;2022-12-18T20:11:53;67.33;;;30.43;;
177;SDS011;77;48.792;9.032;2022-12-18T20:14:19;61.80;;;28.30;;
177;SDS011;77;48.792;9.032;2022-12-18T20:16:44;56.83;;;27.60;;
177;SDS011;77;48.792;9.032;2022-12-18T20:19:09;67.37;;;29.63;;
177;SDS011;77;48.792;9.032;2022-12-18T20:21:37;65.30;;;29.90;;
177;SDS011;77;48.792;9.032;2022-12-18T20:24:03;63.50;;;30.77;;
177;SDS011;77;48.792;9.032;2022-12-18T20:26:28;62.53;;;28.93;;
177;SDS011;77;48.792;9.032;2022-12-18T20:28:54;66.43;;;29.93;;
177;SDS011;77;48.792;9.032;2022-12-18T20:31:19;63.53;;;29.30;;
177;SDS011;77;48.792;9.032;2022-12-18T20:33:44;62.60;;;29.80;;
177;SDS011;77;48.792;9.032;2022-12-18T20:36:11;62.90;;;29.87;;
177;SDS011;77;48.792;9.032;2022-12-18T20:38:38;64.82;;;29.80;;
177;SDS011;77;48.792;9.032;2022-12-18T20:41:05;62.88;;;28.08;;
177;SDS011;77;48.792;9.032;2022-12-18T20:43:30;64.32;;;29.77;;
177;SDS011;77;48.792;9.032;2022-12-18T20:45:59;61.03;;;28.63;;
177;SDS011;77;48.792;9.032;2022-12-18T20:48:24;67.63;;;29.50;;
177;SDS011;77;48.792;9.032;2022-12-18T20:50:55;63.80;;;30.00;;
177;SDS011;77;48.792;9.032;2022-12-18T20:53:21;62.70;;;30.40;;
177;SDS011;77;48.792;9.032;2022-12-18T20:55:47;64.27;;;29.00;;
177;SDS011;77;48.792;9.032;2022-12-18T20:58:12;62.72;;;28.95;;
177;SDS011;77;48.792;9.032;2022-12-18T21:00:38;62.57;;;29.77;;
177;SDS011;77;48.792;9.032;2022-12-18T21:03:03;62.10;;;29.10;;
177;SDS011;77;48.792;9.032;2022-12-18T21:05:28;66.53;;;30.37;;
177;SDS011;77;48.792;9.032;2022-12-18T21:07:54;64.77;;;30.40;;
177;SDS011;77;48.792;9.032;2022-12-18T21:10:19;64.20;;;29.90;;
177;SDS011;77;48.792;9.032;2022-12-18T21:12:45;62.80;;;29.73;;
177;SDS011;77;48.792;9.032;2022-12-18T21:15:11;63.53;;;30.20;;
177;SDS011;77;48.792;9.032;2022-12-18T21:17:36;66.57;;;30.00;;
177;SDS011;77;48.792;9.032;2022-12-18T21:20:01;69.63;;;30.70;;
177;SDS011;77;48.792;9.032;2022-12-18T21:22:27;73.30;;;31.23;;
177;SDS011;77;48.792;9.032;2022-12-18T21:24:52;69.70;;;32.20;;
177;SDS011;77;48.792;9.032;2022-12-18T21:27:17;69.23;;;31.10;;
177;SDS011;77;48.792;9.032;2022-12-18T21:29:44;73.50;;;32.30;;
177;SDS011;77;48.792;9.032;2022-12-18T21:32:10;69.85;;;31.65;;
177;SDS011;77;48.792;9.032;2022-12-18T21:34:35;67.60;;;30.80;;
177;SDS011;77;48.792;9.032;2022-12-18T21:37:00;70.90;;;31.10;;
177;SDS011;77;48.792;9.032;2022-12-18T21:39:26;68.03;;;31.37;;
177;SDS011;77;48.792;9.032;2022-12-18T21:41:52;70.97;;;31.40;;
177;SDS011;77;48.792;9.032;2022-12-18T21:44:17;72.10;;;32.10;;
177;SDS011;77;48.792;9.032;2022-12-18T21:46:44;65.70;;;30.27;;
177;SDS011;77;48.792;9.032;2022-12-18T21:49:11;67.13;;;31.30;;
177;SDS011;77;48.792;9.032;2022-12-18T21:51:36;65.70;;;30.05;;
177;SDS011;77;48.792;9.032;2022-12-18T21:54:02;65.93;;;30.00;;
177;SDS011;77;48.792;9.032;2022-12-18T21:56:41;64.40;;;30.30;;
177;SDS011;77;48.792;9.032;2022-12-18T21:59:06;65.97;;;29.88;;
177;SDS011;77;48.792;9.032;2022-12-18T22:01:31;67.87;;;32.27;;
177;SDS011;77;48.792;9.032;2022-12-18T22:03:58;65.37;;;29.73;;
177;SDS011;77;48.792;9.032;2022-12-18T22:06:23;61.85;;;28.65;;
177;SDS011;77;48.792;9.032;2022-12-18T22:08:48;64.73;;;29.23;;
177;SDS011;77;48.792;9.032;2022-12-18T22:11:13;59.67;;;29.00;;
177;SDS011;77;48.792;9.032;2022-12-18T22:13:39;62.60;;;28.70;;
177;SDS011;77;48.792;9.032;2022-12-18T22:16:04;58.93;;;27.23;;
177;SDS011;77;48.792;9.032;2022-12-18T22:18:29;58.50;;;27.40;;
177;SDS011;77;48.792;9.032;2022-12-18T22:21:05;61.50;;;28.17;;
177;SDS011;77;48.792;9.032;2022-12-18T22:23:31;57.80;;;27.38;;
177;SDS011;77;48.792;9.032;2022-12-18T22:25:56;57.77;;;28.03;;
177;SDS011;77;48.792;9.032;2022-12-18T22:28:21;57.60;;;26.67;;
177;SDS011;77;48.792;9.032;2022-12-18T22:30:46;56.87;;;27.33;;
177;SDS011;77;48.792;9.032;2022-12-18T22:33:12;60.40;;;28.63;;
177;SDS011;77;48.792;9.032;2022-12-18T22:35:37;57.43;;;28.23;;
177;SDS011;77;48.792;9.032;2022-12-18T22:38:04;56.43;;;27.30;;
177;SDS011;77;48.792;9.032;2022-12-18T22:40:29;63.72;;;28.70;;
177;SDS011;77;48.792;9.032;2022-12-18T22:42:54;55.13;;;26.70;;
177;SDS011;77;48.792;9.032;2022-12-18T22:45:19;55.10;;;26.67;;
177;SDS011;77;48.792;9.032;2022-12-18T22:47:45;57.63;;;27.10;;
177;SDS011;77;48.792;9.032;2022-12-18T22:50:11;58.73;;;27.93;;
177;SDS011;77;48.792;9.032;2022-12-18T22:52:36;58.00;;;28.17;;
177;SDS011;77;48.792;9.032;2022-12-18T22:55:03;61.60;;;28.53;;
177;SDS011;77;48.792;9.032;2022-12-18T22:57:29;60.75;;;28.75;;
177;SDS011;77;48.792;9.032;2022-12-18T22:59:54;61.67;;;28.80;;
177;SDS011;77;48.792;9.032;2022-12-18T23:02:20;57.20;;;27.70;;
177;SDS011;77;48.792;9.032;2022-12-18T23:04:45;56.30;;;26.17;;
177;SDS011;77;48.792;9.032;2022-12-18T23:07:11;61.20;;;28.50;;
177;SDS011;77;48.792;9.032;2022-12-18T23:09:36;59.80;;;28.13;;
177;SDS011;77;48.792;9.032;2022-12-18T23:12:03;58.93;;;27.17;;
177;SDS011;77;48.792;9.032;2022-12-18T23:14:28;55.28;;;26.45;;